sensor_id;sensor_type;location;lat;lon;timestamp;P1;durP1;ratioP1;P2;durP2;ratioP2
9763;SDS011;4921;43.214;27.936;2024-02-26T00:01:38;12.85;;;7.88;;
9763;SDS011;4921;43.214;27.936;2024-02-26T00:04:04;12.75;;;7.63;;
9763;SDS011;4921;43.214;27.936;2024-02-26T00:06:30;13.15;;;7.93;;
9763;SDS011;4921;43.214;27.936;2024-02-26T00:08:56;16.17;;;7.68;;
9763;SDS011;4921;43.214;27.936;2024-02-26T00:11:22;14.07;;;7.72;;
9763;SDS011;4921;43.214;27.936;2024-02-26T00:13:47;12.30;;;7.72;;
9763;SDS011;4921;43.214;27.936;2024-02-26T00:16:13;13.68;;;7.78;;
9763;SDS011;4921;43.214;27.936;2024-02-26T00:18:38;15.82;;;7.82;;
9763;SDS011;4921;43.214;27.936;2024-02-26T00:21:04;12.85;;;7.70;;
9763;SDS011;4921;43.214;27.936;2024-02-26T00:23:30;14.40;;;7.93;;
9763;SDS011;4921;43.214;27.936;2024-02-26T00:25:55;12.63;;;7.22;;
9763;SDS011;4921;43.214;27.936;2024-02-26T00:28:21;12.52;;;7.68;;
9763;SDS011;4921;43.214;27.936;2024-02-26T00:30:47;15.27;;;7.20;;
9763;SDS011;4921;43.214;27.936;2024-02-26T00:33:14;11.45;;;6.80;;
9763;SDS011;4921;43.214;27.936;2024-02-26T00:35:42;10.63;;;5.97;;
9763;SDS011;4921;43.214;27.936;2024-02-26T00:38:08;15.68;;;7.55;;
9763;SDS011;4921;43.214;27.936;2024-02-26T00:40:33;13.52;;;7.25;;
9763;SDS011;4921;43.214;27.936;2024-02-26T00:42:59;13.55;;;6.68;;
9763;SDS011;4921;43.214;27.936;2024-02-26T00:45:25;12.85;;;7.07;;
9763;SDS011;4921;43.214;27.936;2024-02-26T00:47:50;14.18;;;7.57;;
9763;SDS011;4921;43.214;27.936;2024-02-26T00:50:16;12.50;;;6.55;;
9763;SDS011;4921;43.214;27.936;2024-02-26T00:52:41;13.02;;;6.70;;
9763;SDS011;4921;43.214;27.936;2024-02-26T00:55:07;14.75;;;6.93;;
9763;SDS011;4921;43.214;27.936;2024-02-26T00:57:33;14.57;;;7.03;;
9763;SDS011;4921;43.214;27.936;2024-02-26T00:59:59;11.02;;;6.90;;
9763;SDS011;4921;43.214;27.936;2024-02-26T01:02:26;13.20;;;6.95;;
9763;SDS011;4921;43.214;27.936;2024-02-26T01:04:51;14.63;;;7.32;;
9763;SDS011;4921;43.214;27.936;2024-02-26T01:07:19;12.77;;;6.85;;
9763;SDS011;4921;43.214;27.936;2024-02-26T01:09:44;11.85;;;7.13;;
9763;SDS011;4921;43.214;27.936;2024-02-26T01:12:10;13.00;;;7.60;;
9763;SDS011;4921;43.214;27.936;2024-02-26T01:14:35;13.02;;;7.18;;
9763;SDS011;4921;43.214;27.936;2024-02-26T01:17:01;12.20;;;6.65;;
9763;SDS011;4921;43.214;27.936;2024-02-26T01:19:27;14.63;;;7.45;;
9763;SDS011;4921;43.214;27.936;2024-02-26T01:21:52;12.95;;;7.30;;
9763;SDS011;4921;43.214;27.936;2024-02-26T01:24:18;12.30;;;7.15;;
9763;SDS011;4921;43.214;27.936;2024-02-26T01:26:44;12.30;;;6.93;;
9763;SDS011;4921;43.214;27.936;2024-02-26T01:29:09;11.35;;;6.68;;
9763;SDS011;4921;43.214;27.936;2024-02-26T01:31:35;15.57;;;6.72;;
9763;SDS011;4921;43.214;27.936;2024-02-26T01:34:01;12.90;;;7.47;;
9763;SDS011;4921;43.214;27.936;2024-02-26T01:36:27;11.80;;;6.57;;
9763;SDS011;4921;43.214;27.936;2024-02-26T01:38:52;14.73;;;6.70;;
9763;SDS011;4921;43.214;27.936;2024-02-26T01:41:18;13.15;;;7.68;;
9763;SDS011;4921;43.214;27.936;2024-02-26T01:43:43;11.43;;;6.82;;
9763;SDS011;4921;43.214;27.936;2024-02-26T01:46:13;12.55;;;6.68;;
9763;SDS011;4921;43.214;27.936;2024-02-26T01:48:42;10.63;;;7.32;;
9763;SDS011;4921;43.214;27.936;2024-02-26T01:51:10;14.15;;;7.18;;
9763;SDS011;4921;43.214;27.936;2024-02-26T01:53:39;12.52;;;7.25;;
9763;SDS011;4921;43.214;27.936;2024-02-26T01:56:05;12.23;;;6.90;;
9763;SDS011;4921;43.214;27.936;2024-02-26T01:58:32;15.10;;;7.05;;
9763;SDS011;4921;43.214;27.936;2024-02-26T02:00:58;12.68;;;7.28;;
9763;SDS011;4921;43.214;27.936;2024-02-26T02:03:24;17.77;;;7.57;;
9763;SDS011;4921;43.214;27.936;2024-02-26T02:05:50;15.20;;;6.68;;
9763;SDS011;4921;43.214;27.936;2024-02-26T02:08:16;10.98;;;6.70;;
9763;SDS011;4921;43.214;27.936;2024-02-26T02:10:41;12.02;;;6.88;;
9763;SDS011;4921;43.214;27.936;2024-02-26T02:13:07;12.85;;;6.90;;
9763;SDS011;4921;43.214;27.936;2024-02-26T02:15:33;14.27;;;6.20;;
9763;SDS011;4921;43.214;27.936;2024-02-26T02:17:58;11.50;;;6.72;;
9763;SDS011;4921;43.214;27.936;2024-02-26T02:20:26;12.75;;;6.47;;
9763;SDS011;4921;43.214;27.936;2024-02-26T02:22:58;11.18;;;6.22;;
9763;SDS011;4921;43.214;27.936;2024-02-26T02:25:23;11.88;;;6.57;;
9763;SDS011;4921;43.214;27.936;2024-02-26T02:27:49;12.63;;;6.03;;
9763;SDS011;4921;43.214;27.936;2024-02-26T02:30:15;15.00;;;5.97;;
9763;SDS011;4921;43.214;27.936;2024-02-26T02:32:41;15.02;;;6.78;;
9763;SDS011;4921;43.214;27.936;2024-02-26T02:35:08;15.18;;;6.15;;
9763;SDS011;4921;43.214;27.936;2024-02-26T02:37:34;10.65;;;5.65;;
9763;SDS011;4921;43.214;27.936;2024-02-26T02:39:59;15.60;;;6.35;;
9763;SDS011;4921;43.214;27.936;2024-02-26T02:42:25;13.60;;;6.53;;
9763;SDS011;4921;43.214;27.936;2024-02-26T02:44:51;12.75;;;5.57;;
9763;SDS011;4921;43.214;27.936;2024-02-26T02:47:17;12.95;;;5.90;;
9763;SDS011;4921;43.214;27.936;2024-02-26T02:49:42;15.70;;;6.18;;
9763;SDS011;4921;43.214;27.936;2024-02-26T02:52:08;12.13;;;6.22;;
9763;SDS011;4921;43.214;27.936;2024-02-26T02:54:33;12.38;;;5.70;;
9763;SDS011;4921;43.214;27.936;2024-02-26T02:56:59;9.38;;;5.30;;
9763;SDS011;4921;43.214;27.936;2024-02-26T02:59:25;14.48;;;5.70;;
9763;SDS011;4921;43.214;27.936;2024-02-26T03:01:50;13.32;;;5.90;;
9763;SDS011;4921;43.214;27.936;2024-02-26T03:04:16;11.57;;;6.15;;
9763;SDS011;4921;43.214;27.936;2024-02-26T03:06:41;11.88;;;5.25;;
9763;SDS011;4921;43.214;27.936;2024-02-26T03:09:07;10.60;;;5.65;;
9763;SDS011;4921;43.214;27.936;2024-02-26T03:11:32;12.82;;;5.25;;
9763;SDS011;4921;43.214;27.936;2024-02-26T03:13:58;14.23;;;5.75;;
9763;SDS011;4921;43.214;27.936;2024-02-26T03:16:23;11.77;;;5.45;;
9763;SDS011;4921;43.214;27.936;2024-02-26T03:18:49;10.75;;;5.13;;
9763;SDS011;4921;43.214;27.936;2024-02-26T03:21:14;12.55;;;5.35;;
9763;SDS011;4921;43.214;27.936;2024-02-26T03:23:40;11.55;;;5.50;;
9763;SDS011;4921;43.214;27.936;2024-02-26T03:26:05;11.25;;;5.07;;
9763;SDS011;4921;43.214;27.936;2024-02-26T03:28:31;14.85;;;5.40;;
9763;SDS011;4921;43.214;27.936;2024-02-26T03:31:00;14.60;;;5.40;;
9763;SDS011;4921;43.214;27.936;2024-02-26T03:33:27;12.23;;;5.60;;
9763;SDS011;4921;43.214;27.936;2024-02-26T03:35:52;14.57;;;5.50;;
9763;SDS011;4921;43.214;27.936;2024-02-26T03:38:18;10.20;;;5.00;;
9763;SDS011;4921;43.214;27.936;2024-02-26T03:40:43;14.18;;;5.15;;
9763;SDS011;4921;43.214;27.936;2024-02-26T03:43:09;10.95;;;4.35;;
9763;SDS011;4921;43.214;27.936;2024-02-26T03:45:34;12.70;;;5.68;;
9763;SDS011;4921;43.214;27.936;2024-02-26T03:48:00;11.75;;;5.07;;
9763;SDS011;4921;43.214;27.936;2024-02-26T03:50:25;12.00;;;4.75;;
9763;SDS011;4921;43.214;27.936;2024-02-26T03:52:51;14.13;;;5.15;;
9763;SDS011;4921;43.214;27.936;2024-02-26T03:55:16;11.95;;;5.38;;
9763;SDS011;4921;43.214;27.936;2024-02-26T03:57:46;15.55;;;4.80;;
9763;SDS011;4921;43.214;27.936;2024-02-26T04:00:12;11.50;;;4.88;;
9763;SDS011;4921;43.214;27.936;2024-02-26T04:02:38;12.95;;;5.32;;
9763;SDS011;4921;43.214;27.936;2024-02-26T04:05:03;11.00;;;5.28;;
9763;SDS011;4921;43.214;27.936;2024-02-26T04:07:30;11.57;;;5.05;;
9763;SDS011;4921;43.214;27.936;2024-02-26T04:09:55;12.98;;;4.72;;
9763;SDS011;4921;43.214;27.936;2024-02-26T04:12:21;10.57;;;4.72;;
9763;SDS011;4921;43.214;27.936;2024-02-26T04:14:46;12.52;;;4.72;;
9763;SDS011;4921;43.214;27.936;2024-02-26T04:17:12;14.45;;;5.07;;
9763;SDS011;4921;43.214;27.936;2024-02-26T04:19:37;11.82;;;4.47;;
9763;SDS011;4921;43.214;27.936;2024-02-26T04:22:03;13.07;;;4.47;;
9763;SDS011;4921;43.214;27.936;2024-02-26T04:24:29;12.13;;;4.80;;
9763;SDS011;4921;43.214;27.936;2024-02-26T04:26:54;12.40;;;4.40;;
9763;SDS011;4921;43.214;27.936;2024-02-26T04:29:20;12.35;;;4.95;;
9763;SDS011;4921;43.214;27.936;2024-02-26T04:31:45;10.68;;;4.47;;
9763;SDS011;4921;43.214;27.936;2024-02-26T04:34:11;12.23;;;5.78;;
9763;SDS011;4921;43.214;27.936;2024-02-26T04:36:37;13.02;;;4.80;;
9763;SDS011;4921;43.214;27.936;2024-02-26T04:39:03;12.07;;;4.85;;
9763;SDS011;4921;43.214;27.936;2024-02-26T04:41:28;16.00;;;5.10;;
9763;SDS011;4921;43.214;27.936;2024-02-26T04:43:54;15.23;;;5.00;;
9763;SDS011;4921;43.214;27.936;2024-02-26T04:46:19;12.43;;;4.35;;
9763;SDS011;4921;43.214;27.936;2024-02-26T04:48:47;9.43;;;4.93;;
9763;SDS011;4921;43.214;27.936;2024-02-26T04:51:12;13.35;;;5.28;;
9763;SDS011;4921;43.214;27.936;2024-02-26T04:53:38;14.75;;;5.18;;
9763;SDS011;4921;43.214;27.936;2024-02-26T04:56:04;14.45;;;4.63;;
9763;SDS011;4921;43.214;27.936;2024-02-26T04:58:29;10.10;;;3.92;;
9763;SDS011;4921;43.214;27.936;2024-02-26T05:00:55;14.65;;;4.35;;
9763;SDS011;4921;43.214;27.936;2024-02-26T05:03:21;11.10;;;4.40;;
9763;SDS011;4921;43.214;27.936;2024-02-26T05:05:46;13.65;;;4.70;;
9763;SDS011;4921;43.214;27.936;2024-02-26T05:08:12;11.98;;;4.70;;
9763;SDS011;4921;43.214;27.936;2024-02-26T05:10:37;8.70;;;4.43;;
9763;SDS011;4921;43.214;27.936;2024-02-26T05:13:06;11.35;;;4.65;;
9763;SDS011;4921;43.214;27.936;2024-02-26T05:15:32;12.27;;;4.43;;
9763;SDS011;4921;43.214;27.936;2024-02-26T05:17:57;12.77;;;4.40;;
9763;SDS011;4921;43.214;27.936;2024-02-26T05:20:23;14.20;;;4.03;;
9763;SDS011;4921;43.214;27.936;2024-02-26T05:22:48;14.38;;;4.63;;
9763;SDS011;4921;43.214;27.936;2024-02-26T05:25:15;21.33;;;4.97;;
9763;SDS011;4921;43.214;27.936;2024-02-26T05:27:41;13.40;;;4.22;;
9763;SDS011;4921;43.214;27.936;2024-02-26T05:30:07;11.38;;;4.50;;
9763;SDS011;4921;43.214;27.936;2024-02-26T05:32:32;16.35;;;5.80;;
9763;SDS011;4921;43.214;27.936;2024-02-26T05:34:58;15.63;;;4.88;;
9763;SDS011;4921;43.214;27.936;2024-02-26T05:37:23;16.50;;;4.80;;
9763;SDS011;4921;43.214;27.936;2024-02-26T05:39:49;13.10;;;4.00;;
9763;SDS011;4921;43.214;27.936;2024-02-26T05:42:15;19.17;;;5.22;;
9763;SDS011;4921;43.214;27.936;2024-02-26T05:44:40;12.80;;;4.75;;
9763;SDS011;4921;43.214;27.936;2024-02-26T05:47:06;13.60;;;4.97;;
9763;SDS011;4921;43.214;27.936;2024-02-26T05:49:31;16.23;;;4.80;;
9763;SDS011;4921;43.214;27.936;2024-02-26T05:51:58;13.95;;;4.88;;
9763;SDS011;4921;43.214;27.936;2024-02-26T05:54:24;13.55;;;4.57;;
9763;SDS011;4921;43.214;27.936;2024-02-26T05:56:49;11.25;;;4.43;;
9763;SDS011;4921;43.214;27.936;2024-02-26T05:59:15;12.77;;;4.68;;
9763;SDS011;4921;43.214;27.936;2024-02-26T06:01:41;14.02;;;5.85;;
9763;SDS011;4921;43.214;27.936;2024-02-26T06:04:07;9.88;;;4.18;;
9763;SDS011;4921;43.214;27.936;2024-02-26T06:06:32;11.82;;;5.00;;
9763;SDS011;4921;43.214;27.936;2024-02-26T06:08:58;11.63;;;4.55;;
9763;SDS011;4921;43.214;27.936;2024-02-26T06:11:23;15.82;;;5.55;;
9763;SDS011;4921;43.214;27.936;2024-02-26T06:13:49;16.35;;;4.45;;
9763;SDS011;4921;43.214;27.936;2024-02-26T06:16:14;11.38;;;4.53;;
9763;SDS011;4921;43.214;27.936;2024-02-26T06:18:40;15.85;;;4.47;;
9763;SDS011;4921;43.214;27.936;2024-02-26T06:21:08;18.67;;;5.03;;
9763;SDS011;4921;43.214;27.936;2024-02-26T06:23:34;12.27;;;4.18;;
9763;SDS011;4921;43.214;27.936;2024-02-26T06:28:44;11.20;;;3.60;;
9763;SDS011;4921;43.214;27.936;2024-02-26T06:31:10;12.98;;;3.70;;
9763;SDS011;4921;43.214;27.936;2024-02-26T06:33:35;14.25;;;3.90;;
9763;SDS011;4921;43.214;27.936;2024-02-26T06:36:01;19.25;;;5.13;;
9763;SDS011;4921;43.214;27.936;2024-02-26T06:38:28;14.80;;;4.32;;
9763;SDS011;4921;43.214;27.936;2024-02-26T06:40:53;17.20;;;4.20;;
9763;SDS011;4921;43.214;27.936;2024-02-26T06:43:19;9.10;;;4.00;;
9763;SDS011;4921;43.214;27.936;2024-02-26T06:45:44;12.90;;;3.72;;
9763;SDS011;4921;43.214;27.936;2024-02-26T06:48:10;18.00;;;4.85;;
9763;SDS011;4921;43.214;27.936;2024-02-26T06:50:35;12.95;;;3.20;;
9763;SDS011;4921;43.214;27.936;2024-02-26T06:53:01;12.43;;;3.95;;
9763;SDS011;4921;43.214;27.936;2024-02-26T06:55:27;12.15;;;4.00;;
9763;SDS011;4921;43.214;27.936;2024-02-26T06:57:52;10.13;;;3.70;;
9763;SDS011;4921;43.214;27.936;2024-02-26T07:00:18;13.50;;;4.45;;
9763;SDS011;4921;43.214;27.936;2024-02-26T07:02:43;9.45;;;3.20;;
9763;SDS011;4921;43.214;27.936;2024-02-26T07:05:09;15.35;;;3.85;;
9763;SDS011;4921;43.214;27.936;2024-02-26T07:07:35;10.63;;;3.95;;
9763;SDS011;4921;43.214;27.936;2024-02-26T07:10:01;9.35;;;3.60;;
9763;SDS011;4921;43.214;27.936;2024-02-26T07:12:29;9.82;;;3.53;;
9763;SDS011;4921;43.214;27.936;2024-02-26T07:14:55;12.85;;;4.03;;
9763;SDS011;4921;43.214;27.936;2024-02-26T07:17:20;11.00;;;3.63;;
9763;SDS011;4921;43.214;27.936;2024-02-26T07:19:46;12.98;;;3.92;;
9763;SDS011;4921;43.214;27.936;2024-02-26T07:22:11;12.85;;;3.25;;
9763;SDS011;4921;43.214;27.936;2024-02-26T07:24:37;13.50;;;3.92;;
9763;SDS011;4921;43.214;27.936;2024-02-26T07:27:03;10.15;;;3.53;;
9763;SDS011;4921;43.214;27.936;2024-02-26T07:29:28;10.70;;;3.10;;
9763;SDS011;4921;43.214;27.936;2024-02-26T07:31:54;10.48;;;3.47;;
9763;SDS011;4921;43.214;27.936;2024-02-26T07:34:21;8.98;;;3.47;;
9763;SDS011;4921;43.214;27.936;2024-02-26T07:36:52;11.38;;;3.72;;
9763;SDS011;4921;43.214;27.936;2024-02-26T07:39:18;11.02;;;3.70;;
9763;SDS011;4921;43.214;27.936;2024-02-26T07:41:44;10.00;;;3.45;;
9763;SDS011;4921;43.214;27.936;2024-02-26T07:44:12;8.82;;;2.90;;
9763;SDS011;4921;43.214;27.936;2024-02-26T07:46:37;12.43;;;3.17;;
9763;SDS011;4921;43.214;27.936;2024-02-26T07:49:03;10.63;;;3.42;;
9763;SDS011;4921;43.214;27.936;2024-02-26T07:51:29;12.20;;;3.58;;
9763;SDS011;4921;43.214;27.936;2024-02-26T07:53:54;10.63;;;3.58;;
9763;SDS011;4921;43.214;27.936;2024-02-26T07:56:20;12.90;;;5.28;;
9763;SDS011;4921;43.214;27.936;2024-02-26T07:58:45;8.02;;;3.45;;
9763;SDS011;4921;43.214;27.936;2024-02-26T08:01:15;9.05;;;3.83;;
9763;SDS011;4921;43.214;27.936;2024-02-26T08:03:40;7.63;;;3.22;;
9763;SDS011;4921;43.214;27.936;2024-02-26T08:06:07;8.63;;;3.25;;
9763;SDS011;4921;43.214;27.936;2024-02-26T08:08:33;9.85;;;3.15;;
9763;SDS011;4921;43.214;27.936;2024-02-26T08:10:59;9.02;;;3.45;;
9763;SDS011;4921;43.214;27.936;2024-02-26T08:13:25;10.40;;;3.38;;
9763;SDS011;4921;43.214;27.936;2024-02-26T08:15:51;9.85;;;4.35;;
9763;SDS011;4921;43.214;27.936;2024-02-26T08:18:17;11.63;;;3.47;;
9763;SDS011;4921;43.214;27.936;2024-02-26T08:20:44;7.88;;;2.90;;
9763;SDS011;4921;43.214;27.936;2024-02-26T08:23:09;10.77;;;3.70;;
9763;SDS011;4921;43.214;27.936;2024-02-26T08:25:35;8.35;;;3.20;;
9763;SDS011;4921;43.214;27.936;2024-02-26T08:28:01;9.50;;;2.95;;
9763;SDS011;4921;43.214;27.936;2024-02-26T08:30:26;11.20;;;3.60;;
9763;SDS011;4921;43.214;27.936;2024-02-26T08:32:52;10.38;;;3.22;;
9763;SDS011;4921;43.214;27.936;2024-02-26T08:35:17;9.45;;;3.58;;
9763;SDS011;4921;43.214;27.936;2024-02-26T08:37:46;7.70;;;3.05;;
9763;SDS011;4921;43.214;27.936;2024-02-26T08:40:13;9.15;;;2.75;;
9763;SDS011;4921;43.214;27.936;2024-02-26T08:42:39;13.57;;;3.03;;
9763;SDS011;4921;43.214;27.936;2024-02-26T08:45:05;8.15;;;2.83;;
9763;SDS011;4921;43.214;27.936;2024-02-26T08:47:32;12.65;;;3.25;;
9763;SDS011;4921;43.214;27.936;2024-02-26T08:49:57;9.23;;;3.35;;
9763;SDS011;4921;43.214;27.936;2024-02-26T08:52:23;14.38;;;4.32;;
9763;SDS011;4921;43.214;27.936;2024-02-26T08:54:48;11.57;;;3.40;;
9763;SDS011;4921;43.214;27.936;2024-02-26T08:57:14;9.15;;;3.65;;
9763;SDS011;4921;43.214;27.936;2024-02-26T08:59:40;11.80;;;3.70;;
9763;SDS011;4921;43.214;27.936;2024-02-26T09:02:06;11.18;;;3.97;;
9763;SDS011;4921;43.214;27.936;2024-02-26T09:04:33;9.35;;;3.70;;
9763;SDS011;4921;43.214;27.936;2024-02-26T09:06:59;13.95;;;3.35;;
9763;SDS011;4921;43.214;27.936;2024-02-26T09:09:24;11.82;;;3.58;;
9763;SDS011;4921;43.214;27.936;2024-02-26T09:11:51;8.52;;;3.35;;
9763;SDS011;4921;43.214;27.936;2024-02-26T09:14:17;9.52;;;2.72;;
9763;SDS011;4921;43.214;27.936;2024-02-26T09:16:43;12.35;;;3.60;;
9763;SDS011;4921;43.214;27.936;2024-02-26T09:19:09;9.32;;;3.47;;
9763;SDS011;4921;43.214;27.936;2024-02-26T09:21:34;9.07;;;2.90;;
9763;SDS011;4921;43.214;27.936;2024-02-26T09:24:00;10.35;;;3.47;;
9763;SDS011;4921;43.214;27.936;2024-02-26T09:26:25;9.88;;;3.28;;
9763;SDS011;4921;43.214;27.936;2024-02-26T09:28:51;8.68;;;3.10;;
9763;SDS011;4921;43.214;27.936;2024-02-26T09:31:17;11.35;;;3.13;;
9763;SDS011;4921;43.214;27.936;2024-02-26T09:33:43;9.85;;;3.03;;
9763;SDS011;4921;43.214;27.936;2024-02-26T09:36:09;10.48;;;3.10;;
9763;SDS011;4921;43.214;27.936;2024-02-26T09:38:36;9.65;;;3.22;;
9763;SDS011;4921;43.214;27.936;2024-02-26T09:41:03;8.65;;;2.85;;
9763;SDS011;4921;43.214;27.936;2024-02-26T09:43:33;9.18;;;3.22;;
9763;SDS011;4921;43.214;27.936;2024-02-26T09:46:00;9.80;;;3.25;;
9763;SDS011;4921;43.214;27.936;2024-02-26T09:48:26;10.15;;;3.85;;
9763;SDS011;4921;43.214;27.936;2024-02-26T09:50:53;9.45;;;3.60;;
9763;SDS011;4921;43.214;27.936;2024-02-26T09:53:18;11.25;;;3.20;;
9763;SDS011;4921;43.214;27.936;2024-02-26T09:55:47;11.65;;;3.15;;
9763;SDS011;4921;43.214;27.936;2024-02-26T09:58:13;11.95;;;3.22;;
9763;SDS011;4921;43.214;27.936;2024-02-26T10:00:43;13.88;;;3.58;;
9763;SDS011;4921;43.214;27.936;2024-02-26T10:03:13;8.35;;;3.35;;
9763;SDS011;4921;43.214;27.936;2024-02-26T10:05:40;11.75;;;3.05;;
9763;SDS011;4921;43.214;27.936;2024-02-26T10:08:08;11.15;;;3.40;;
9763;SDS011;4921;43.214;27.936;2024-02-26T10:10:36;11.57;;;3.78;;
9763;SDS011;4921;43.214;27.936;2024-02-26T10:13:03;12.00;;;3.20;;
9763;SDS011;4921;43.214;27.936;2024-02-26T10:15:35;11.13;;;3.40;;
9763;SDS011;4921;43.214;27.936;2024-02-26T10:18:04;7.53;;;2.60;;
9763;SDS011;4921;43.214;27.936;2024-02-26T10:20:30;10.10;;;3.28;;
9763;SDS011;4921;43.214;27.936;2024-02-26T10:22:57;12.68;;;2.95;;
9763;SDS011;4921;43.214;27.936;2024-02-26T10:25:22;11.48;;;3.38;;
9763;SDS011;4921;43.214;27.936;2024-02-26T10:27:48;12.63;;;3.50;;
9763;SDS011;4921;43.214;27.936;2024-02-26T10:30:18;10.27;;;3.53;;
9763;SDS011;4921;43.214;27.936;2024-02-26T10:32:47;11.73;;;3.72;;
9763;SDS011;4921;43.214;27.936;2024-02-26T10:35:14;7.72;;;2.80;;
9763;SDS011;4921;43.214;27.936;2024-02-26T10:37:40;11.45;;;3.53;;
9763;SDS011;4921;43.214;27.936;2024-02-26T10:40:09;14.40;;;3.05;;
9763;SDS011;4921;43.214;27.936;2024-02-26T10:42:38;10.73;;;3.15;;
9763;SDS011;4921;43.214;27.936;2024-02-26T10:45:05;8.88;;;4.10;;
9763;SDS011;4921;43.214;27.936;2024-02-26T10:47:31;10.25;;;3.08;;
9763;SDS011;4921;43.214;27.936;2024-02-26T10:49:58;10.40;;;2.70;;
9763;SDS011;4921;43.214;27.936;2024-02-26T10:52:25;11.98;;;3.65;;
9763;SDS011;4921;43.214;27.936;2024-02-26T10:54:53;8.73;;;3.30;;
9763;SDS011;4921;43.214;27.936;2024-02-26T10:57:22;9.60;;;3.25;;
9763;SDS011;4921;43.214;27.936;2024-02-26T10:59:49;14.77;;;3.30;;
9763;SDS011;4921;43.214;27.936;2024-02-26T11:02:17;8.52;;;2.83;;
9763;SDS011;4921;43.214;27.936;2024-02-26T11:04:43;11.45;;;3.10;;
9763;SDS011;4921;43.214;27.936;2024-02-26T11:07:10;8.98;;;2.72;;
9763;SDS011;4921;43.214;27.936;2024-02-26T11:09:37;11.63;;;2.78;;
9763;SDS011;4921;43.214;27.936;2024-02-26T11:12:08;11.48;;;3.22;;
9763;SDS011;4921;43.214;27.936;2024-02-26T11:14:38;12.20;;;3.13;;
9763;SDS011;4921;43.214;27.936;2024-02-26T11:17:05;10.38;;;3.05;;
9763;SDS011;4921;43.214;27.936;2024-02-26T11:19:34;11.55;;;2.80;;
9763;SDS011;4921;43.214;27.936;2024-02-26T11:22:01;9.82;;;2.67;;
9763;SDS011;4921;43.214;27.936;2024-02-26T11:24:27;10.52;;;2.80;;
9763;SDS011;4921;43.214;27.936;2024-02-26T11:26:58;8.02;;;2.90;;
9763;SDS011;4921;43.214;27.936;2024-02-26T11:29:28;10.00;;;3.65;;
9763;SDS011;4921;43.214;27.936;2024-02-26T11:31:59;13.95;;;3.75;;
9763;SDS011;4921;43.214;27.936;2024-02-26T11:34:25;9.07;;;2.90;;
9763;SDS011;4921;43.214;27.936;2024-02-26T11:36:52;13.05;;;3.45;;
9763;SDS011;4921;43.214;27.936;2024-02-26T11:39:18;8.70;;;2.72;;
9763;SDS011;4921;43.214;27.936;2024-02-26T11:41:44;8.88;;;3.10;;
9763;SDS011;4921;43.214;27.936;2024-02-26T11:44:10;13.27;;;3.42;;
9763;SDS011;4921;43.214;27.936;2024-02-26T11:46:39;10.82;;;3.47;;
9763;SDS011;4921;43.214;27.936;2024-02-26T11:51:54;7.40;;;2.95;;
9763;SDS011;4921;43.214;27.936;2024-02-26T11:59:48;10.13;;;2.75;;
9763;SDS011;4921;43.214;27.936;2024-02-26T12:02:57;8.35;;;3.00;;
9763;SDS011;4921;43.214;27.936;2024-02-26T12:05:16;11.65;;;2.90;;
9763;SDS011;4921;43.214;27.936;2024-02-26T12:07:48;8.48;;;2.97;;
9763;SDS011;4921;43.214;27.936;2024-02-26T12:12:55;12.43;;;3.20;;
9763;SDS011;4921;43.214;27.936;2024-02-26T12:15:30;7.28;;;2.47;;
9763;SDS011;4921;43.214;27.936;2024-02-26T12:17:58;6.75;;;3.05;;
9763;SDS011;4921;43.214;27.936;2024-02-26T12:20:25;10.23;;;3.65;;
9763;SDS011;4921;43.214;27.936;2024-02-26T12:22:50;18.58;;;3.90;;
9763;SDS011;4921;43.214;27.936;2024-02-26T12:25:19;9.13;;;2.67;;
9763;SDS011;4921;43.214;27.936;2024-02-26T12:27:47;10.32;;;2.80;;
9763;SDS011;4921;43.214;27.936;2024-02-26T12:30:12;10.70;;;3.13;;
9763;SDS011;4921;43.214;27.936;2024-02-26T12:32:38;9.57;;;3.55;;
9763;SDS011;4921;43.214;27.936;2024-02-26T12:35:05;7.80;;;3.33;;
9763;SDS011;4921;43.214;27.936;2024-02-26T12:37:31;7.88;;;2.67;;
9763;SDS011;4921;43.214;27.936;2024-02-26T12:39:57;9.90;;;2.58;;
9763;SDS011;4921;43.214;27.936;2024-02-26T12:42:23;12.35;;;2.95;;
9763;SDS011;4921;43.214;27.936;2024-02-26T12:44:49;6.47;;;2.38;;
9763;SDS011;4921;43.214;27.936;2024-02-26T12:47:15;13.23;;;3.22;;
9763;SDS011;4921;43.214;27.936;2024-02-26T12:49:42;11.85;;;3.22;;
9763;SDS011;4921;43.214;27.936;2024-02-26T12:52:09;8.48;;;2.60;;
9763;SDS011;4921;43.214;27.936;2024-02-26T12:54:35;7.35;;;2.65;;
9763;SDS011;4921;43.214;27.936;2024-02-26T12:57:04;10.00;;;3.40;;
9763;SDS011;4921;43.214;27.936;2024-02-26T12:59:32;9.35;;;3.13;;
9763;SDS011;4921;43.214;27.936;2024-02-26T13:01:59;8.73;;;2.97;;
9763;SDS011;4921;43.214;27.936;2024-02-26T13:04:27;9.70;;;3.10;;
9763;SDS011;4921;43.214;27.936;2024-02-26T13:06:54;9.20;;;2.70;;
9763;SDS011;4921;43.214;27.936;2024-02-26T13:09:20;12.15;;;3.60;;
9763;SDS011;4921;43.214;27.936;2024-02-26T13:11:52;14.65;;;4.43;;
9763;SDS011;4921;43.214;27.936;2024-02-26T13:14:19;13.98;;;3.60;;
9763;SDS011;4921;43.214;27.936;2024-02-26T13:16:45;12.63;;;5.05;;
9763;SDS011;4921;43.214;27.936;2024-02-26T13:19:20;10.57;;;3.83;;
9763;SDS011;4921;43.214;27.936;2024-02-26T13:21:45;15.70;;;3.60;;
9763;SDS011;4921;43.214;27.936;2024-02-26T13:24:12;10.48;;;2.90;;
9763;SDS011;4921;43.214;27.936;2024-02-26T13:26:38;16.02;;;4.47;;
9763;SDS011;4921;43.214;27.936;2024-02-26T13:29:04;14.10;;;3.40;;
9763;SDS011;4921;43.214;27.936;2024-02-26T13:31:30;8.77;;;2.88;;
9763;SDS011;4921;43.214;27.936;2024-02-26T13:33:56;10.43;;;3.28;;
9763;SDS011;4921;43.214;27.936;2024-02-26T13:36:24;13.52;;;3.85;;
9763;SDS011;4921;43.214;27.936;2024-02-26T13:38:54;8.68;;;3.88;;
9763;SDS011;4921;43.214;27.936;2024-02-26T13:41:21;13.00;;;3.72;;
9763;SDS011;4921;43.214;27.936;2024-02-26T13:43:47;11.00;;;3.33;;
9763;SDS011;4921;43.214;27.936;2024-02-26T13:46:13;9.52;;;3.60;;
9763;SDS011;4921;43.214;27.936;2024-02-26T13:48:40;11.43;;;3.40;;
9763;SDS011;4921;43.214;27.936;2024-02-26T13:51:08;9.82;;;3.70;;
9763;SDS011;4921;43.214;27.936;2024-02-26T13:53:33;11.10;;;4.43;;
9763;SDS011;4921;43.214;27.936;2024-02-26T13:55:59;12.57;;;5.13;;
9763;SDS011;4921;43.214;27.936;2024-02-26T13:58:26;13.45;;;5.00;;
9763;SDS011;4921;43.214;27.936;2024-02-26T14:00:52;14.15;;;4.55;;
9763;SDS011;4921;43.214;27.936;2024-02-26T14:03:21;17.17;;;5.53;;
9763;SDS011;4921;43.214;27.936;2024-02-26T14:05:47;12.07;;;4.45;;
9763;SDS011;4921;43.214;27.936;2024-02-26T14:08:12;9.30;;;4.00;;
9763;SDS011;4921;43.214;27.936;2024-02-26T14:10:38;11.20;;;4.22;;
9763;SDS011;4921;43.214;27.936;2024-02-26T14:13:04;12.15;;;4.22;;
9763;SDS011;4921;43.214;27.936;2024-02-26T14:15:30;12.75;;;4.15;;
9763;SDS011;4921;43.214;27.936;2024-02-26T14:17:56;15.13;;;4.68;;
9763;SDS011;4921;43.214;27.936;2024-02-26T14:20:22;10.00;;;4.07;;
9763;SDS011;4921;43.214;27.936;2024-02-26T14:22:49;12.20;;;4.32;;
9763;SDS011;4921;43.214;27.936;2024-02-26T14:27:42;10.60;;;4.15;;
9763;SDS011;4921;43.214;27.936;2024-02-26T14:30:08;12.55;;;4.43;;
9763;SDS011;4921;43.214;27.936;2024-02-26T14:32:34;14.55;;;5.07;;
9763;SDS011;4921;43.214;27.936;2024-02-26T14:35:01;12.52;;;5.22;;
9763;SDS011;4921;43.214;27.936;2024-02-26T14:37:28;12.88;;;4.78;;
9763;SDS011;4921;43.214;27.936;2024-02-26T14:39:53;12.00;;;4.63;;
9763;SDS011;4921;43.214;27.936;2024-02-26T14:42:19;12.68;;;4.72;;
9763;SDS011;4921;43.214;27.936;2024-02-26T14:44:44;17.25;;;4.38;;
9763;SDS011;4921;43.214;27.936;2024-02-26T14:47:12;13.05;;;4.45;;
9763;SDS011;4921;43.214;27.936;2024-02-26T14:49:38;12.02;;;4.47;;
9763;SDS011;4921;43.214;27.936;2024-02-26T14:52:04;14.82;;;6.25;;
9763;SDS011;4921;43.214;27.936;2024-02-26T14:54:30;17.02;;;4.50;;
9763;SDS011;4921;43.214;27.936;2024-02-26T14:57:02;14.98;;;5.03;;
9763;SDS011;4921;43.214;27.936;2024-02-26T14:59:29;15.30;;;5.80;;
9763;SDS011;4921;43.214;27.936;2024-02-26T15:01:56;14.23;;;5.10;;